createdAt,value
2023-01-03T00:00:15.488Z,100866.97
2023-01-03T00:00:46.972Z,100871.06
2023-01-03T00:01:18.456Z,100860.97
2023-01-03T00:01:49.989Z,100866.44
2023-01-03T00:02:21.533Z,100868.88
2023-01-03T00:02:53.037Z,100877.06
2023-01-03T00:03:24.539Z,100864.81
2023-01-03T00:03:56.006Z,100865.06
2023-01-03T00:04:27.500Z,100875.44
2023-01-03T00:04:59.009Z,100868.34
2023-01-03T00:05:30.433Z,100868.09
2023-01-03T00:06:01.883Z,100871.09
2023-01-03T00:06:33.269Z,100868.34
2023-01-03T00:07:04.683Z,100867.56
2023-01-03T00:07:36.172Z,100873.00
2023-01-03T00:08:07.537Z,100866.97
2023-01-03T00:08:38.975Z,100871.88
2023-01-03T00:09:10.374Z,100870.78
2023-01-03T00:09:41.814Z,100873.53
2023-01-03T00:10:13.232Z,100868.34
2023-01-03T00:10:44.653Z,100865.34
2023-01-03T00:11:16.151Z,100862.63
2023-01-03T00:11:47.579Z,100872.44
2023-01-03T00:12:18.999Z,100869.16
2023-01-03T00:12:50.495Z,100876.22
2023-01-03T00:13:21.942Z,100865.34
2023-01-03T00:13:53.356Z,100868.06
2023-01-03T00:14:24.755Z,100868.63
2023-01-03T00:14:56.194Z,100873.28
2023-01-03T00:15:27.667Z,100876.28
2023-01-03T00:15:59.055Z,100868.63
2023-01-03T00:16:30.527Z,100871.63
2023-01-03T00:17:01.971Z,100865.34
2023-01-03T00:17:33.455Z,100873.78
2023-01-03T00:18:04.945Z,100877.34
2023-01-03T00:18:36.419Z,100875.16
2023-01-03T00:19:07.883Z,100876.25
2023-01-03T00:19:39.351Z,100871.09
2023-01-03T00:20:10.827Z,100870.25
2023-01-03T00:20:42.219Z,100879.25
2023-01-03T00:21:13.645Z,100872.16
2023-01-03T00:21:45.037Z,100873.53
2023-01-03T00:22:16.464Z,100878.44
2023-01-03T00:22:47.849Z,100873.84
2023-01-03T00:23:19.343Z,100883.91
2023-01-03T00:23:50.832Z,100874.63
2023-01-03T00:24:22.346Z,100875.16
2023-01-03T00:24:53.751Z,100874.63
2023-01-03T00:25:25.182Z,100872.69
2023-01-03T00:25:56.632Z,100875.69
2023-01-03T00:26:28.089Z,100872.44
2023-01-03T00:26:59.544Z,100875.44
2023-01-03T00:27:31.077Z,100878.41
2023-01-03T00:28:02.527Z,100877.03
2023-01-03T00:28:33.998Z,100875.97
2023-01-03T00:29:05.526Z,100879.78
2023-01-03T00:29:36.903Z,100880.03
2023-01-03T00:30:08.389Z,100873.75
2023-01-03T00:30:39.879Z,100872.69
2023-01-03T00:31:11.448Z,100873.22
2023-01-03T00:31:42.883Z,100876.22
2023-01-03T00:32:14.348Z,100871.88
2023-01-03T00:32:45.820Z,100873.22
2023-01-03T00:33:17.311Z,100875.44
2023-01-03T00:33:48.703Z,100872.69
2023-01-03T00:34:20.135Z,100878.13
2023-01-03T00:34:51.554Z,100876.50
2023-01-03T00:35:22.955Z,100878.13
2023-01-03T00:35:54.369Z,100883.59
2023-01-03T00:36:25.801Z,100880.06
2023-01-03T00:36:57.187Z,100880.63
2023-01-03T00:37:28.633Z,100874.59
2023-01-03T00:38:00.037Z,100876.25
2023-01-03T00:38:31.424Z,100875.97
2023-01-03T00:39:03.052Z,100871.63
2023-01-03T00:39:34.560Z,100873.53
2023-01-03T00:40:05.955Z,100875.44
2023-01-03T00:40:37.344Z,100868.88
2023-01-03T00:41:39.768Z,100876.25
2023-01-03T00:42:10.941Z,100870.50
2023-01-03T00:42:42.218Z,100870.50
2023-01-03T00:43:13.661Z,100872.94
2023-01-03T00:43:45.141Z,100866.69
2023-01-03T00:44:16.555Z,100870.78
2023-01-03T00:44:48.041Z,100869.16
2023-01-03T00:45:20.699Z,100875.44
2023-01-03T00:45:53.184Z,100876.53
2023-01-03T00:46:24.628Z,100868.34
2023-01-03T00:46:56.171Z,100873.25
2023-01-03T00:47:27.565Z,100872.44
2023-01-03T00:47:58.961Z,100877.06
2023-01-03T00:48:30.360Z,100878.69
2023-01-03T00:49:01.729Z,100876.22
2023-01-03T00:49:33.141Z,100877.34
2023-01-03T00:50:04.540Z,100882.53
2023-01-03T00:50:35.894Z,100879.53
2023-01-03T00:51:07.224Z,100887.72
2023-01-03T00:51:38.556Z,100886.34
2023-01-03T00:52:09.924Z,100884.69
2023-01-03T00:52:41.322Z,100889.06
2023-01-03T00:53:12.674Z,100890.16
2023-01-03T00:53:44.031Z,100891.25
2023-01-03T00:54:15.462Z,100884.72
2023-01-03T00:54:46.861Z,100886.63
2023-01-03T00:55:18.227Z,100884.97
2023-01-03T00:55:49.589Z,100887.97
2023-01-03T00:56:21.157Z,100894.78
2023-01-03T00:56:52.533Z,100896.69
2023-01-03T00:57:23.938Z,100893.13
2023-01-03T00:57:55.312Z,100888.25
2023-01-03T00:58:26.751Z,100893.97
2023-01-03T00:58:58.117Z,100892.31
2023-01-03T00:59:29.527Z,100884.41
2023-01-03T01:00:03.559Z,100890.69
2023-01-03T01:00:34.959Z,100893.44
2023-01-03T01:01:06.452Z,100884.44
2023-01-03T01:01:45.833Z,100891.50
2023-01-03T01:02:18.507Z,100890.69
2023-01-03T01:02:50.356Z,100893.97
2023-01-03T01:03:21.979Z,100890.69
2023-01-03T01:03:53.538Z,100889.84
2023-01-03T01:04:24.923Z,100897.78
2023-01-03T01:04:56.308Z,100892.59
2023-01-03T01:05:27.809Z,100894.50
2023-01-03T01:05:59.170Z,100896.41
2023-01-03T01:06:30.612Z,100895.06
2023-01-03T01:07:02.023Z,100894.50
2023-01-03T01:07:33.472Z,100897.78
2023-01-03T01:08:04.889Z,100898.84
2023-01-03T01:08:36.365Z,100893.13
2023-01-03T01:09:07.792Z,100897.78
2023-01-03T01:09:39.210Z,100906.78
2023-01-03T01:10:10.634Z,100905.69
2023-01-03T01:10:42.002Z,100902.41
2023-01-03T01:11:13.408Z,100912.50
2023-01-03T01:11:44.776Z,100908.94
2023-01-03T01:12:16.136Z,100906.50
2023-01-03T01:12:47.945Z,100913.88
2023-01-03T01:13:19.333Z,100917.97
2023-01-03T01:13:51.139Z,100914.69
2023-01-03T01:14:22.582Z,100912.25
2023-01-03T01:14:54.010Z,100914.69
2023-01-03T01:15:25.420Z,100906.50
2023-01-03T01:15:56.844Z,100906.81
2023-01-03T01:16:28.288Z,100920.16
2023-01-03T01:16:59.650Z,100907.63
2023-01-03T01:17:31.156Z,100923.97
2023-01-03T01:18:02.555Z,100920.16
2023-01-03T01:18:33.907Z,100911.44
2023-01-03T01:19:05.273Z,100921.22
2023-01-03T01:19:36.614Z,100920.41
2023-01-03T01:20:08.025Z,100922.31
2023-01-03T01:20:39.410Z,100923.16
2023-01-03T01:21:10.778Z,100922.06
2023-01-03T01:21:42.163Z,100920.97
2023-01-03T01:22:13.534Z,100919.06
2023-01-03T01:22:44.958Z,100920.16
2023-01-03T01:23:16.325Z,100920.41
2023-01-03T01:23:47.713Z,100908.97
2023-01-03T01:24:19.094Z,100920.69
2023-01-03T01:24:50.521Z,100931.06
2023-01-03T01:25:22.061Z,100916.91
2023-01-03T01:25:53.441Z,100924.53
2023-01-03T01:26:24.830Z,100923.97
2023-01-03T01:26:56.278Z,100928.06
2023-01-03T01:27:27.626Z,100928.84
2023-01-03T01:27:59.081Z,100928.84
2023-01-03T01:28:30.470Z,100928.03
2023-01-03T01:29:01.832Z,100926.94
2023-01-03T01:29:33.256Z,100924.50
2023-01-03T01:30:04.642Z,100923.13
2023-01-03T01:30:36.032Z,100924.50
2023-01-03T01:31:07.521Z,100923.13
2023-01-03T01:31:38.972Z,100922.59
2023-01-03T01:32:10.488Z,100925.59
2023-01-03T01:32:41.880Z,100923.69
2023-01-03T01:33:13.321Z,100923.44
2023-01-03T01:33:44.757Z,100927.00
2023-01-03T01:34:16.155Z,100928.88
2023-01-03T01:34:47.548Z,100927.50
2023-01-03T01:35:18.928Z,100925.03
2023-01-03T01:35:50.283Z,100923.97
2023-01-03T01:36:21.680Z,100925.88
2023-01-03T01:36:53.053Z,100926.97
2023-01-03T01:37:24.420Z,100932.13
2023-01-03T01:37:55.836Z,100936.25
2023-01-03T01:38:27.259Z,100924.81
2023-01-03T01:38:58.638Z,100927.25
2023-01-03T01:39:30.075Z,100926.69
2023-01-03T01:40:01.479Z,100937.31
2023-01-03T01:40:32.846Z,100933.47
2023-01-03T01:41:04.268Z,100931.28
2023-01-03T01:41:35.619Z,100930.50
2023-01-03T01:42:07.036Z,100932.94
2023-01-03T01:42:38.422Z,100929.38
2023-01-03T01:43:09.780Z,100935.41
2023-01-03T01:43:41.229Z,100935.69
2023-01-03T01:44:12.649Z,100944.41
2023-01-03T01:44:44.042Z,100939.78
2023-01-03T01:45:15.413Z,100934.31
2023-01-03T01:45:46.812Z,100937.59
2023-01-03T01:46:18.217Z,100946.63
2023-01-03T01:46:49.707Z,100943.59
2023-01-03T01:47:21.139Z,100948.50
2023-01-03T01:47:52.496Z,100949.03
2023-01-03T01:48:23.886Z,100944.66
2023-01-03T01:48:55.252Z,100948.22
2023-01-03T01:49:26.616Z,100949.84
2023-01-03T01:49:57.972Z,100949.31
2023-01-03T01:50:29.332Z,100946.59
2023-01-03T01:51:00.716Z,100951.78
2023-01-03T01:51:32.170Z,100955.59
2023-01-03T01:52:03.741Z,100957.75
2023-01-03T01:52:35.128Z,100957.50
2023-01-03T01:53:06.511Z,100947.97
2023-01-03T01:53:37.875Z,100954.50
2023-01-03T01:54:09.302Z,100952.31
2023-01-03T01:54:40.660Z,100950.94
2023-01-03T01:55:12.047Z,100955.31
2023-01-03T01:55:43.427Z,100955.31
2023-01-03T01:56:14.862Z,100958.59
2023-01-03T01:56:46.187Z,100954.47
2023-01-03T01:57:17.587Z,100950.13
2023-01-03T01:57:49.002Z,100955.00
2023-01-03T01:58:20.366Z,100956.38
2023-01-03T01:58:51.740Z,100956.91
2023-01-03T01:59:23.080Z,100950.91
2023-01-03T01:59:54.430Z,100958.00
2023-01-03T02:00:25.872Z,100951.47
2023-01-03T02:00:57.299Z,100958.81
2023-01-03T02:01:28.797Z,100952.28
2023-01-03T02:02:00.410Z,100955.81
2023-01-03T02:02:32.130Z,100959.38
2023-01-03T02:03:03.787Z,100961.84
2023-01-03T02:03:35.309Z,100959.13
2023-01-03T02:04:06.964Z,100962.94
2023-01-03T02:04:38.402Z,100964.34
2023-01-03T02:05:09.791Z,100965.94
2023-01-03T02:05:41.137Z,100972.75
2023-01-03T02:06:12.562Z,100967.84
2023-01-03T02:06:43.923Z,100961.56
2023-01-03T02:07:15.274Z,100967.31
2023-01-03T02:07:46.721Z,100965.13
2023-01-03T02:08:18.179Z,100969.78
2023-01-03T02:08:49.650Z,100975.50
2023-01-03T02:09:21.098Z,100967.03
2023-01-03T02:09:52.549Z,100978.50
2023-01-03T02:10:23.906Z,100968.66
2023-01-03T02:10:55.291Z,100969.19
2023-01-03T02:11:26.677Z,100969.47
2023-01-03T02:11:58.040Z,100968.66
2023-01-03T02:12:29.423Z,100967.88
2023-01-03T02:13:00.870Z,100972.50
2023-01-03T02:13:32.247Z,100973.34
2023-01-03T02:14:03.575Z,100978.50
2023-01-03T02:14:35.051Z,100979.59
2023-01-03T02:15:06.414Z,100974.19
2023-01-03T02:15:37.862Z,100969.25
2023-01-03T02:16:09.333Z,100968.97
2023-01-03T02:16:40.698Z,100973.06
2023-01-03T02:17:12.050Z,100972.81
2023-01-03T02:17:43.511Z,100969.53
2023-01-03T02:18:14.888Z,100971.69
2023-01-03T02:18:46.286Z,100972.50
2023-01-03T02:19:17.703Z,100965.41
2023-01-03T02:19:49.053Z,100969.78
2023-01-03T02:20:20.481Z,100972.00
2023-01-03T02:20:51.848Z,100968.41
2023-01-03T02:21:23.294Z,100963.19
2023-01-03T02:21:54.659Z,100965.94
2023-01-03T02:22:26.027Z,100965.38
2023-01-03T02:22:57.426Z,100961.00
2023-01-03T02:23:28.824Z,100964.00
2023-01-03T02:24:00.190Z,100968.13
2023-01-03T02:24:31.611Z,100965.91
2023-01-03T02:25:03.040Z,100964.28
2023-01-03T02:25:34.441Z,100964.53
2023-01-03T02:26:05.837Z,100968.66
2023-01-03T02:26:37.209Z,100976.06
2023-01-03T02:27:08.611Z,100971.66
2023-01-03T02:27:40.032Z,100968.38
2023-01-03T02:28:11.495Z,100968.91
2023-01-03T02:28:42.928Z,100972.75
2023-01-03T02:29:14.282Z,100963.22
2023-01-03T02:29:45.666Z,100968.97
2023-01-03T02:30:17.032Z,100963.75
2023-01-03T02:30:48.444Z,100972.47
2023-01-03T02:31:19.857Z,100971.41
2023-01-03T02:31:51.235Z,100971.69
2023-01-03T02:32:22.592Z,100965.38
2023-01-03T02:32:54.073Z,100967.84
2023-01-03T02:33:25.578Z,100968.16
2023-01-03T02:33:56.966Z,100973.31
2023-01-03T02:34:28.370Z,100971.09
2023-01-03T02:34:59.811Z,100969.78
2023-01-03T02:35:31.173Z,100970.34
2023-01-03T02:36:02.519Z,100972.50
2023-01-03T02:36:33.951Z,100969.75
2023-01-03T02:37:05.315Z,100971.13
2023-01-03T02:37:36.686Z,100972.78
2023-01-03T02:38:08.081Z,100978.22
2023-01-03T02:38:39.497Z,100974.38
2023-01-03T02:39:10.863Z,100976.28
2023-01-03T02:39:42.307Z,100979.28
2023-01-03T02:40:13.747Z,100978.16
2023-01-03T02:40:47.447Z,100978.72
2023-01-03T02:41:18.948Z,100980.66
2023-01-03T02:41:50.352Z,100981.22
2023-01-03T02:42:21.739Z,100984.50
2023-01-03T02:42:53.084Z,100988.88
2023-01-03T02:43:24.566Z,100984.25
2023-01-03T02:43:55.929Z,100990.75
2023-01-03T02:44:27.315Z,100983.34
2023-01-03T02:44:58.728Z,100977.09
2023-01-03T02:45:30.275Z,100981.47
2023-01-03T02:46:01.736Z,100984.22
2023-01-03T02:46:33.295Z,100979.00
2023-01-03T02:47:04.807Z,100980.34
2023-01-03T02:47:36.269Z,100984.97
2023-01-03T02:48:07.611Z,100989.38
2023-01-03T02:48:39.064Z,100987.50
2023-01-03T02:49:10.442Z,100994.81
2023-01-03T02:49:41.846Z,100990.72
2023-01-03T02:50:13.277Z,100983.63
2023-01-03T02:50:44.660Z,100982.81
2023-01-03T02:51:16.063Z,100988.25
2023-01-03T02:51:47.427Z,100988.25
2023-01-03T02:52:18.799Z,100991.84
2023-01-03T02:52:50.181Z,100995.94
2023-01-03T02:53:21.548Z,100991.53
2023-01-03T02:53:52.975Z,100989.34
2023-01-03T02:54:24.344Z,100995.06
2023-01-03T02:54:55.681Z,100995.88
2023-01-03T02:55:27.046Z,100992.91
2023-01-03T02:55:58.485Z,100995.09
2023-01-03T02:56:29.852Z,100992.06
2023-01-03T02:57:01.378Z,100992.06
2023-01-03T02:57:32.706Z,100996.97
2023-01-03T02:58:04.029Z,100995.34
2023-01-03T02:58:35.404Z,100989.06
2023-01-03T02:59:06.823Z,100988.50
2023-01-03T02:59:38.162Z,100990.41
2023-01-03T03:00:09.582Z,100995.66
2023-01-03T03:00:40.931Z,100998.41
2023-01-03T03:01:12.520Z,100991.00
2023-01-03T03:01:43.961Z,100994.53
2023-01-03T03:02:15.587Z,100993.69
2023-01-03T03:02:47.046Z,100992.34
2023-01-03T03:03:18.644Z,100990.97
2023-01-03T03:03:50.145Z,100991.81
2023-01-03T03:04:21.691Z,100984.16
2023-01-03T03:04:53.058Z,100995.31
2023-01-03T03:05:24.436Z,100986.88
2023-01-03T03:05:55.865Z,100987.44
2023-01-03T03:06:27.269Z,100988.00
2023-01-03T03:06:58.692Z,100996.47
2023-01-03T03:07:30.075Z,100995.94
2023-01-03T03:08:01.497Z,100997.56
2023-01-03T03:08:32.910Z,100992.09
2023-01-03T03:09:04.327Z,100994.00
2023-01-03T03:09:35.793Z,100994.28
2023-01-03T03:10:07.171Z,100993.22
2023-01-03T03:10:38.595Z,100993.25
2023-01-03T03:11:10.042Z,101002.50
2023-01-03T03:11:41.454Z,100992.66
2023-01-03T03:12:12.858Z,100989.91
2023-01-03T03:12:44.249Z,100992.63
2023-01-03T03:13:15.676Z,100994.78
2023-01-03T03:13:47.074Z,100989.59
2023-01-03T03:14:18.476Z,100996.44
2023-01-03T03:14:49.853Z,100997.25
2023-01-03T03:15:21.202Z,100994.25
2023-01-03T03:15:52.595Z,100994.25
2023-01-03T03:16:24.060Z,100991.81
2023-01-03T03:16:55.496Z,100990.97
2023-01-03T03:17:26.907Z,100994.53
2023-01-03T03:17:58.294Z,100991.81
2023-01-03T03:18:29.755Z,100989.91
2023-01-03T03:19:01.112Z,100990.72
2023-01-03T03:19:32.508Z,100989.34
2023-01-03T03:20:06.786Z,100996.72
2023-01-03T03:20:38.446Z,100992.34
2023-01-03T03:21:09.819Z,100998.66
2023-01-03T03:21:41.152Z,100994.53
2023-01-03T03:22:12.497Z,100988.50
2023-01-03T03:22:43.892Z,100990.44
2023-01-03T03:23:15.223Z,100993.19
2023-01-03T03:23:46.696Z,101001.09
2023-01-03T03:24:18.028Z,100995.16
2023-01-03T03:24:49.429Z,101003.56
2023-01-03T03:25:20.780Z,100995.34
2023-01-03T03:25:52.182Z,100995.34
2023-01-03T03:26:23.574Z,101001.41
2023-01-03T03:26:55.127Z,101001.69
2023-01-03T03:27:26.485Z,100999.22
2023-01-03T03:27:57.887Z,101004.16
2023-01-03T03:28:29.278Z,101006.09
2023-01-03T03:29:00.635Z,101005.50
2023-01-03T03:29:32.062Z,101004.72
2023-01-03T03:30:03.736Z,101000.31
2023-01-03T03:30:35.119Z,101002.44
2023-01-03T03:31:06.619Z,100994.25
2023-01-03T03:31:38.068Z,101004.09
2023-01-03T03:32:09.444Z,100997.50
2023-01-03T03:32:40.864Z,100998.03
2023-01-03T03:33:12.265Z,101008.16
2023-01-03T03:33:43.686Z,100999.16
2023-01-03T03:34:15.043Z,101003.81
2023-01-03T03:34:46.452Z,101001.63
2023-01-03T03:35:17.837Z,101000.81
2023-01-03T03:35:49.226Z,101007.59
2023-01-03T03:36:20.645Z,100999.69
2023-01-03T03:36:52.029Z,100999.94
2023-01-03T03:37:23.429Z,101005.66
2023-01-03T03:37:54.808Z,101001.84
2023-01-03T03:38:26.196Z,101008.94
2023-01-03T03:38:57.681Z,101003.53
2023-01-03T03:39:29.084Z,101006.56
2023-01-03T03:40:00.616Z,101007.91
2023-01-03T03:40:32.060Z,101010.59
2023-01-03T03:41:03.462Z,101009.75
2023-01-03T03:41:34.897Z,101008.13
2023-01-03T03:42:06.343Z,101003.50
2023-01-03T03:42:37.662Z,101003.50
2023-01-03T03:43:09.038Z,101004.56
2023-01-03T03:43:40.400Z,101003.50
2023-01-03T03:44:11.847Z,101002.66
2023-01-03T03:44:43.235Z,101002.66
2023-01-03T03:45:14.619Z,101005.13
2023-01-03T03:45:46.030Z,101004.06
2023-01-03T03:46:17.411Z,101008.97
2023-01-03T03:46:54.522Z,101008.47
2023-01-03T03:47:26.436Z,100999.97
2023-01-03T03:47:57.855Z,101004.59
2023-01-03T03:48:29.266Z,101007.91
2023-01-03T03:49:00.663Z,101004.09
2023-01-03T03:49:32.126Z,101005.44
2023-01-03T03:50:03.500Z,101003.78
2023-01-03T03:50:34.923Z,101013.34
2023-01-03T03:51:06.340Z,101014.22
2023-01-03T03:51:37.778Z,101012.31
2023-01-03T03:52:09.148Z,101009.53
2023-01-03T03:52:40.577Z,101001.88
2023-01-03T03:53:12.034Z,101008.41
2023-01-03T03:53:43.489Z,101013.06
2023-01-03T03:54:14.883Z,101007.88
2023-01-03T03:54:46.317Z,101000.81
2023-01-03T03:55:17.703Z,100995.88
2023-01-03T03:55:49.136Z,101011.41
2023-01-03T03:56:20.581Z,101001.31
2023-01-03T03:56:51.967Z,101002.72
2023-01-03T03:57:23.334Z,101007.03
2023-01-03T03:57:54.758Z,101007.31
2023-01-03T03:58:26.145Z,101007.03
2023-01-03T03:58:57.545Z,101016.59
2023-01-03T03:59:29.013Z,101001.66
2023-01-03T04:00:00.632Z,101010.91
2023-01-03T04:00:34.702Z,101006.50
2023-01-03T04:01:06.092Z,101001.88
2023-01-03T04:01:37.602Z,101005.69
2023-01-03T04:02:09.197Z,101002.72
2023-01-03T04:02:40.748Z,101006.25
2023-01-03T04:03:12.319Z,101008.72
2023-01-03T04:03:43.827Z,101004.09
2023-01-03T04:04:15.233Z,101007.91
2023-01-03T04:04:46.673Z,101003.00
2023-01-03T04:05:18.157Z,101006.56
2023-01-03T04:05:49.561Z,101004.09
2023-01-03T04:06:20.906Z,101011.41
2023-01-03T04:06:52.297Z,101007.31
2023-01-03T04:07:23.739Z,101005.66
2023-01-03T04:07:55.164Z,101005.44
2023-01-03T04:08:26.547Z,101009.00
2023-01-03T04:08:57.958Z,101011.72
2023-01-03T04:09:29.352Z,101014.69
2023-01-03T04:10:00.717Z,101011.44
2023-01-03T04:10:37.459Z,101013.34
2023-01-03T04:11:09.479Z,101012.25
2023-01-03T04:11:40.867Z,101012.53
2023-01-03T04:12:12.218Z,101018.81
2023-01-03T04:12:43.635Z,101012.78
2023-01-03T04:13:15.022Z,101010.63
2023-01-03T04:13:46.460Z,101010.31
2023-01-03T04:14:17.859Z,101008.13
2023-01-03T04:14:49.261Z,101010.59
2023-01-03T04:15:20.722Z,101004.59
2023-01-03T04:15:52.259Z,101011.22
2023-01-03T04:16:23.843Z,101009.84
2023-01-03T04:16:55.311Z,101010.06
2023-01-03T04:17:26.727Z,101012.25
2023-01-03T04:17:58.125Z,101003.03
2023-01-03T04:18:29.507Z,101007.94
2023-01-03T04:19:00.943Z,101008.50
2023-01-03T04:19:32.327Z,101008.50
2023-01-03T04:20:03.661Z,101004.09
2023-01-03T04:20:35.049Z,101006.25
2023-01-03T04:21:06.529Z,101008.16
2023-01-03T04:21:37.959Z,101004.31
2023-01-03T04:22:09.293Z,101007.88
2023-01-03T04:22:40.686Z,101002.41
2023-01-03T04:23:12.171Z,101004.88
2023-01-03T04:23:43.502Z,101002.16
2023-01-03T04:24:14.880Z,101008.72
2023-01-03T04:24:46.263Z,101009.28
2023-01-03T04:25:17.629Z,101009.28
2023-01-03T04:25:49.009Z,101012.56
2023-01-03T04:26:20.415Z,101016.63
2023-01-03T04:26:51.756Z,101014.16
2023-01-03T04:27:23.123Z,101016.66
2023-01-03T04:27:54.576Z,101007.91
2023-01-03T04:28:26.002Z,101013.63
2023-01-03T04:28:57.440Z,101014.16
2023-01-03T04:29:30.744Z,101017.16
2023-01-03T04:30:04.224Z,101012.25
2023-01-03T04:30:35.612Z,101012.53
2023-01-03T04:31:06.965Z,101012.50
2023-01-03T04:31:38.557Z,101009.81
2023-01-03T04:32:10.070Z,101015.56
2023-01-03T04:32:41.642Z,101007.91
2023-01-03T04:33:13.050Z,101013.06
2023-01-03T04:33:44.489Z,101005.13
2023-01-03T04:34:15.898Z,101013.31
2023-01-03T04:34:47.299Z,101007.34
2023-01-03T04:35:18.660Z,101010.63
2023-01-03T04:35:49.962Z,101012.81
2023-01-03T04:36:21.329Z,101009.53
2023-01-03T04:36:52.744Z,101016.94
2023-01-03T04:37:24.192Z,101016.06
2023-01-03T04:37:55.610Z,101016.59
2023-01-03T04:38:27.019Z,101017.69
2023-01-03T04:38:58.394Z,101014.41
2023-01-03T04:39:29.767Z,101018.22
2023-01-03T04:40:01.187Z,101014.91
2023-01-03T04:40:32.521Z,101018.25
2023-01-03T04:41:03.892Z,101020.97
2023-01-03T04:41:35.317Z,101016.88
2023-01-03T04:42:06.735Z,101019.84
2023-01-03T04:42:38.156Z,101017.94
2023-01-03T04:43:09.553Z,101020.41
2023-01-03T04:43:40.931Z,101020.94
2023-01-03T04:44:12.288Z,101013.84
2023-01-03T04:44:43.657Z,101022.84
2023-01-03T04:45:15.052Z,101024.47
2023-01-03T04:45:46.492Z,101019.28
2023-01-03T04:46:18.040Z,101015.78
2023-01-03T04:46:52.956Z,101020.97
2023-01-03T04:47:24.749Z,101017.69
2023-01-03T04:47:56.113Z,101013.88
2023-01-03T04:48:27.514Z,101012.22
2023-01-03T04:48:58.969Z,101019.59
2023-01-03T04:49:30.334Z,101020.41
2023-01-03T04:50:01.769Z,101016.03
2023-01-03T04:50:33.101Z,101016.59
2023-01-03T04:51:04.435Z,101019.88
2023-01-03T04:51:35.841Z,101013.63
2023-01-03T04:52:07.222Z,101019.91
2023-01-03T04:52:38.639Z,101020.44
2023-01-03T04:53:10.017Z,101021.53
2023-01-03T04:53:41.367Z,101020.44
2023-01-03T04:54:12.862Z,101019.63
2023-01-03T04:54:44.196Z,101026.97
2023-01-03T04:55:15.572Z,101016.06
2023-01-03T04:55:47.080Z,101017.41
2023-01-03T04:56:18.465Z,101018.78
2023-01-03T04:56:49.873Z,101024.78
2023-01-03T04:57:21.240Z,101020.44
2023-01-03T04:57:52.671Z,101025.91
2023-01-03T04:58:24.088Z,101028.38
2023-01-03T04:58:55.492Z,101021.53
2023-01-03T04:59:26.907Z,101025.34
2023-01-03T04:59:58.285Z,101021.78
2023-01-03T05:00:29.826Z,101025.03
2023-01-03T05:01:01.273Z,101024.47
2023-01-03T05:01:32.884Z,101026.69
2023-01-03T05:02:04.426Z,101028.06
2023-01-03T05:02:36.066Z,101027.84
2023-01-03T05:03:07.472Z,101020.44
2023-01-03T05:03:38.840Z,101030.28
2023-01-03T05:04:10.245Z,101029.72
2023-01-03T05:04:41.811Z,101027.03
2023-01-03T05:05:13.329Z,101026.44
2023-01-03T05:05:44.703Z,101025.88
2023-01-03T05:06:16.053Z,101026.69
2023-01-03T05:06:47.487Z,101031.56
2023-01-03T05:07:18.892Z,101030.19
2023-01-03T05:07:50.266Z,101032.34
2023-01-03T05:08:21.623Z,101030.19
2023-01-03T05:08:52.993Z,101037.03
2023-01-03T05:09:24.512Z,101029.69
2023-01-03T05:09:55.939Z,101033.78
2023-01-03T05:10:27.291Z,101035.72
2023-01-03T05:10:58.696Z,101031.91
2023-01-03T05:11:30.056Z,101028.59
2023-01-03T05:12:01.417Z,101034.03
2023-01-03T05:12:32.850Z,101028.31
2023-01-03T05:13:04.213Z,101032.44
2023-01-03T05:13:35.610Z,101031.63
2023-01-03T05:14:13.959Z,101029.97
2023-01-03T05:14:45.761Z,101030.75
2023-01-03T05:15:17.220Z,101032.41
2023-01-03T05:15:48.568Z,101029.94
2023-01-03T05:16:20.055Z,101038.41
2023-01-03T05:16:51.533Z,101027.84
2023-01-03T05:17:23.033Z,101034.63
2023-01-03T05:17:54.382Z,101033.81
2023-01-03T05:18:25.779Z,101032.69
2023-01-03T05:18:57.253Z,101030.75
2023-01-03T05:19:28.635Z,101029.13
2023-01-03T05:20:00.012Z,101035.38
2023-01-03T05:20:31.461Z,101031.00
2023-01-03T05:21:02.848Z,101030.19
2023-01-03T05:21:34.214Z,101033.75
2023-01-03T05:22:05.618Z,101038.38
2023-01-03T05:22:36.996Z,101038.13
2023-01-03T05:23:08.446Z,101027.75
2023-01-03T05:23:39.878Z,101035.38
2023-01-03T05:24:11.232Z,101036.47
2023-01-03T05:24:42.620Z,101037.28
2023-01-03T05:25:13.969Z,101037.84
2023-01-03T05:25:45.444Z,101032.91
2023-01-03T05:26:16.827Z,101036.47
2023-01-03T05:26:48.194Z,101042.75
2023-01-03T05:27:19.617Z,101035.69
2023-01-03T05:27:51.054Z,101035.13
2023-01-03T05:28:22.447Z,101039.50
2023-01-03T05:28:53.858Z,101034.59
2023-01-03T05:29:25.220Z,101034.88
2023-01-03T05:29:56.573Z,101037.31
2023-01-03T05:30:27.991Z,101041.13
2023-01-03T05:30:59.399Z,101039.50
2023-01-03T05:31:30.799Z,101038.41
2023-01-03T05:32:02.265Z,101037.84
2023-01-03T05:32:33.709Z,101035.38
2023-01-03T05:33:05.086Z,101035.13
2023-01-03T05:33:36.479Z,101033.47
2023-01-03T05:34:07.878Z,101038.38
2023-01-03T05:34:39.265Z,101037.03
2023-01-03T05:35:10.681Z,101044.38
2023-01-03T05:35:42.098Z,101038.66
2023-01-03T05:36:13.516Z,101039.50
2023-01-03T05:36:44.961Z,101039.78
2023-01-03T05:37:16.398Z,101038.41
2023-01-03T05:37:47.764Z,101038.41
2023-01-03T05:38:19.283Z,101034.56
2023-01-03T05:38:50.681Z,101035.41
2023-01-03T05:39:22.070Z,101044.97
2023-01-03T05:39:53.447Z,101037.31
2023-01-03T05:40:24.830Z,101035.69
2023-01-03T05:40:56.207Z,101041.69
2023-01-03T05:41:27.590Z,101044.13
2023-01-03T05:41:58.973Z,101040.84
2023-01-03T05:42:30.343Z,101042.47
2023-01-03T05:43:01.792Z,101045.53
2023-01-03T05:43:33.135Z,101033.53
2023-01-03T05:44:04.494Z,101039.50
2023-01-03T05:44:35.820Z,101037.84
2023-01-03T05:45:07.198Z,101040.31
2023-01-03T05:45:38.636Z,101044.94
2023-01-03T05:46:10.147Z,101037.03
2023-01-03T05:46:41.658Z,101046.56
2023-01-03T05:47:13.052Z,101044.91
2023-01-03T05:47:44.441Z,101038.63
2023-01-03T05:48:15.834Z,101044.94
2023-01-03T05:48:47.196Z,101036.22
2023-01-03T05:49:18.575Z,101037.56
2023-01-03T05:49:50.029Z,101043.81
2023-01-03T05:50:21.384Z,101040.03
2023-01-03T05:50:52.763Z,101040.56
2023-01-03T05:51:24.149Z,101040.84
2023-01-03T05:51:55.553Z,101047.38
2023-01-03T05:52:26.970Z,101044.38
2023-01-03T05:52:58.294Z,101038.41
2023-01-03T05:53:29.695Z,101047.13
2023-01-03T05:54:01.132Z,101042.75
2023-01-03T05:54:32.552Z,101039.19
2023-01-03T05:55:03.951Z,101041.91
2023-01-03T05:55:35.380Z,101047.38
2023-01-03T05:56:06.754Z,101041.66
2023-01-03T05:56:38.151Z,101052.00
2023-01-03T05:57:09.556Z,101044.66
2023-01-03T05:57:40.961Z,101040.28
2023-01-03T05:58:12.345Z,101039.19
2023-01-03T05:58:43.801Z,101044.66
2023-01-03T05:59:15.163Z,101046.56
2023-01-03T05:59:46.544Z,101047.94